createdAt,value
2022-10-30T00:01:13.007Z,22.20
2022-10-30T00:03:39.588Z,22.20
2022-10-30T00:06:06.527Z,22.20
2022-10-30T00:08:33.558Z,22.20
2022-10-30T00:11:12.479Z,22.20
2022-10-30T00:13:39.105Z,22.20
2022-10-30T00:16:07.872Z,22.20
2022-10-30T00:18:39.201Z,22.20
2022-10-30T00:21:11.415Z,22.20
2022-10-30T00:23:37.952Z,22.20
2022-10-30T00:26:06.525Z,22.20
2022-10-30T00:28:33.304Z,22.20
2022-10-30T00:31:01.405Z,22.20
2022-10-30T00:33:28.022Z,22.20
2022-10-30T00:35:54.581Z,22.20
2022-10-30T00:38:21.341Z,22.20
2022-10-30T00:40:48.008Z,22.20
2022-10-30T00:43:37.625Z,22.20
2022-10-30T00:46:29.304Z,22.20
2022-10-30T00:49:15.744Z,22.20
2022-10-30T00:51:49.781Z,22.20
2022-10-30T00:54:18.639Z,22.20
2022-10-30T00:56:47.669Z,22.20
2022-10-30T00:59:22.328Z,22.20
2022-10-30T01:01:49.027Z,22.20
2022-10-30T01:04:16.985Z,22.20
2022-10-30T01:06:48.057Z,22.20
2022-10-30T01:09:15.582Z,22.20
2022-10-30T01:11:42.153Z,22.20
2022-10-30T01:14:12.142Z,22.20
2022-10-30T01:16:39.330Z,22.20
2022-10-30T01:19:24.758Z,22.20
2022-10-30T01:22:14.432Z,22.20
2022-10-30T01:25:19.758Z,22.20
2022-10-30T01:28:02.760Z,22.20
2022-10-30T01:31:06.737Z,22.20
2022-10-30T01:34:03.734Z,22.20
2022-10-30T01:36:30.190Z,22.20
2022-10-30T01:38:59.318Z,22.20
2022-10-30T01:41:25.839Z,22.20
2022-10-30T01:43:58.034Z,22.20
2022-10-30T01:46:41.882Z,22.20
2022-10-30T01:49:42.074Z,22.20
2022-10-30T01:52:39.490Z,22.20
2022-10-30T01:55:24.069Z,22.20
2022-10-30T01:58:13.056Z,22.20
2022-10-30T02:00:42.113Z,22.20
2022-10-30T02:03:09.094Z,22.20
2022-10-30T02:05:41.199Z,22.20
2022-10-30T02:08:07.729Z,22.20
2022-10-30T02:10:36.759Z,22.20
2022-10-30T02:13:03.938Z,22.20
2022-10-30T02:15:31.846Z,22.20
2022-10-30T02:17:58.881Z,22.20
2022-10-30T02:20:26.267Z,22.20
2022-10-30T02:22:58.028Z,22.20
2022-10-30T02:25:26.160Z,22.20
2022-10-30T02:27:52.685Z,22.10
2022-10-30T02:30:19.285Z,22.20
2022-10-30T02:32:45.925Z,22.10
2022-10-30T02:35:12.600Z,22.20
2022-10-30T02:37:39.832Z,22.20
2022-10-30T02:40:08.269Z,22.20
2022-10-30T02:42:35.696Z,22.20
2022-10-30T02:45:02.247Z,22.20
2022-10-30T02:47:29.058Z,22.10
2022-10-30T02:49:55.572Z,22.10
2022-10-30T02:52:22.069Z,22.10
2022-10-30T02:54:48.614Z,22.20
2022-10-30T02:57:15.109Z,22.20
2022-10-30T02:59:41.659Z,22.20
2022-10-30T03:02:08.333Z,22.20
2022-10-30T03:04:34.873Z,22.20
2022-10-30T03:07:01.412Z,22.20
2022-10-30T03:09:28.463Z,22.20
2022-10-30T03:11:55.000Z,22.10
2022-10-30T03:14:21.680Z,22.10
2022-10-30T03:16:48.284Z,22.10
2022-10-30T03:19:14.789Z,22.20
2022-10-30T03:21:41.358Z,22.10
2022-10-30T03:24:08.038Z,22.10
2022-10-30T03:26:34.586Z,22.10
2022-10-30T03:29:01.365Z,22.20
2022-10-30T03:31:30.385Z,22.10
2022-10-30T03:33:56.889Z,22.20
2022-10-30T03:36:24.661Z,22.10
2022-10-30T03:38:51.377Z,22.10
2022-10-30T03:41:17.878Z,22.10
2022-10-30T03:43:44.463Z,22.10
2022-10-30T03:46:11.536Z,22.10
2022-10-30T03:48:38.223Z,22.10
2022-10-30T03:51:05.067Z,22.10
2022-10-30T03:53:31.744Z,22.10
2022-10-30T03:56:00.934Z,22.10
2022-10-30T03:58:28.845Z,22.20
2022-10-30T04:01:01.460Z,22.10
2022-10-30T04:03:28.175Z,22.10
2022-10-30T04:05:54.902Z,22.10
2022-10-30T04:08:21.723Z,22.20
2022-10-30T04:10:48.410Z,22.10
2022-10-30T04:13:17.533Z,22.10
2022-10-30T04:15:44.161Z,22.10
2022-10-30T04:18:16.332Z,22.10
2022-10-30T04:20:44.561Z,22.10
2022-10-30T04:23:15.035Z,22.10
2022-10-30T04:25:41.756Z,22.10
2022-10-30T04:28:09.246Z,22.10
2022-10-30T04:30:36.850Z,22.10
2022-10-30T04:33:05.958Z,22.20
2022-10-30T04:35:36.850Z,22.10
2022-10-30T04:38:06.166Z,22.10
2022-10-30T04:40:35.590Z,22.10
2022-10-30T04:43:05.682Z,22.10
2022-10-30T04:45:32.693Z,22.10
2022-10-30T04:48:04.997Z,22.10
2022-10-30T04:50:32.741Z,22.10
2022-10-30T04:53:01.132Z,22.10
2022-10-30T04:55:28.964Z,22.10
2022-10-30T04:57:57.822Z,22.10
2022-10-30T05:00:26.012Z,22.10
2022-10-30T05:02:52.797Z,22.10
2022-10-30T05:05:20.623Z,22.10
2022-10-30T05:07:47.307Z,22.10
2022-10-30T05:10:14.863Z,22.10
2022-10-30T05:12:45.493Z,22.10
2022-10-30T05:15:13.935Z,22.10
2022-10-30T05:17:41.048Z,22.10
2022-10-30T05:20:08.281Z,22.10
2022-10-30T05:22:34.958Z,22.10
2022-10-30T05:25:01.899Z,22.10
2022-10-30T05:27:28.587Z,22.10
2022-10-30T05:29:55.213Z,22.10
2022-10-30T05:32:21.885Z,22.10
2022-10-30T05:34:48.477Z,22.10
2022-10-30T05:37:15.114Z,22.10
2022-10-30T05:39:44.834Z,22.10
2022-10-30T05:42:13.915Z,22.10
2022-10-30T05:44:59.889Z,22.10
2022-10-30T05:47:27.364Z,22.10
2022-10-30T05:49:54.003Z,22.10
2022-10-30T05:52:20.731Z,22.10
2022-10-30T05:54:47.393Z,22.10
2022-10-30T05:57:14.045Z,22.10
2022-10-30T05:59:40.724Z,22.10
2022-10-30T06:02:07.518Z,22.10
2022-10-30T06:04:34.451Z,22.10
2022-10-30T06:07:01.141Z,22.10
2022-10-30T06:09:27.840Z,22.10
2022-10-30T06:11:54.587Z,22.10
2022-10-30T06:14:21.808Z,22.10
2022-10-30T06:16:49.452Z,22.10
2022-10-30T06:19:18.653Z,22.10
2022-10-30T06:21:46.704Z,22.10
2022-10-30T06:24:14.249Z,22.10
2022-10-30T06:26:41.245Z,22.10
2022-10-30T06:29:08.024Z,22.10
2022-10-30T06:31:34.663Z,22.10
2022-10-30T06:34:01.297Z,22.10
2022-10-30T06:36:28.011Z,22.10
2022-10-30T06:38:54.618Z,22.10
2022-10-30T06:41:29.110Z,22.10
2022-10-30T06:43:57.125Z,22.10
2022-10-30T06:46:26.991Z,22.10
2022-10-30T06:48:57.453Z,22.10
2022-10-30T06:51:24.368Z,22.10
2022-10-30T06:53:50.989Z,22.10
2022-10-30T06:56:17.808Z,22.10
2022-10-30T06:58:44.471Z,22.10
2022-10-30T07:01:11.221Z,22.10
2022-10-30T07:03:38.278Z,22.10
2022-10-30T07:06:05.135Z,22.10
2022-10-30T07:08:32.585Z,22.00
2022-10-30T07:10:59.317Z,22.10
2022-10-30T07:13:26.081Z,22.10
2022-10-30T07:15:52.774Z,22.10
2022-10-30T07:18:19.354Z,22.00
2022-10-30T07:20:46.088Z,22.10
2022-10-30T07:23:12.706Z,22.10
2022-10-30T07:25:39.293Z,22.00
2022-10-30T07:28:06.349Z,22.10
2022-10-30T07:30:33.147Z,22.10
2022-10-30T07:33:06.126Z,22.10
2022-10-30T07:35:35.259Z,22.10
2022-10-30T07:38:12.083Z,22.00
2022-10-30T07:40:39.011Z,22.00
2022-10-30T07:43:06.246Z,22.00
2022-10-30T07:45:33.840Z,22.00
2022-10-30T07:48:00.864Z,22.00
2022-10-30T07:50:28.059Z,22.00
2022-10-30T07:52:55.363Z,22.00
2022-10-30T07:55:22.022Z,22.00
2022-10-30T07:57:48.957Z,22.00
2022-10-30T08:00:18.924Z,22.10
2022-10-30T08:02:49.871Z,22.00
2022-10-30T08:05:17.245Z,22.00
2022-10-30T08:07:46.638Z,22.00
2022-10-30T08:14:01.210Z,22.00
2022-10-30T08:16:28.097Z,22.00
2022-10-30T08:18:55.270Z,22.00
2022-10-30T08:21:22.010Z,22.00
2022-10-30T08:23:48.596Z,22.00
2022-10-30T08:26:15.241Z,22.00
2022-10-30T08:28:41.816Z,22.00
2022-10-30T08:31:08.594Z,22.10
2022-10-30T08:33:41.683Z,22.00
2022-10-30T08:36:08.856Z,22.00
2022-10-30T08:38:35.409Z,22.10
2022-10-30T08:41:02.427Z,22.00
2022-10-30T08:43:28.934Z,22.00
2022-10-30T08:45:58.264Z,22.00
2022-10-30T08:48:24.827Z,22.10
2022-10-30T08:50:51.335Z,22.00
2022-10-30T08:53:17.970Z,22.00
2022-10-30T08:55:44.470Z,22.00
2022-10-30T08:58:10.988Z,22.00
2022-10-30T09:00:37.980Z,22.10
2022-10-30T09:03:04.971Z,22.10
2022-10-30T09:05:31.719Z,22.10
2022-10-30T09:08:01.179Z,22.10
2022-10-30T09:10:29.369Z,22.10
2022-10-30T09:12:57.526Z,22.00
2022-10-30T09:15:25.195Z,22.10
2022-10-30T09:18:00.137Z,22.10
2022-10-30T09:20:27.529Z,22.10
2022-10-30T09:22:54.415Z,22.10
2022-10-30T09:25:21.193Z,22.10
2022-10-30T09:27:47.737Z,22.10
2022-10-30T09:30:14.695Z,22.10
2022-10-30T09:32:41.597Z,22.10
2022-10-30T09:35:08.881Z,22.10
2022-10-30T09:37:36.707Z,22.10
2022-10-30T09:40:04.766Z,22.10
2022-10-30T09:42:50.605Z,22.10
2022-10-30T09:45:30.444Z,22.10
2022-10-30T09:48:30.344Z,22.10
2022-10-30T09:51:12.770Z,22.10
2022-10-30T09:53:45.195Z,22.00
2022-10-30T09:56:39.689Z,22.00
2022-10-30T09:59:18.034Z,22.00
2022-10-30T10:02:00.995Z,22.00
2022-10-30T10:04:54.589Z,22.00
2022-10-30T10:07:35.227Z,22.10
2022-10-30T10:10:08.034Z,22.00
2022-10-30T10:12:45.371Z,22.10
2022-10-30T10:15:32.526Z,22.10
2022-10-30T10:18:02.331Z,22.00
2022-10-30T10:20:37.294Z,22.10
2022-10-30T10:23:16.165Z,22.10
2022-10-30T10:25:51.018Z,22.10
2022-10-30T10:28:49.405Z,22.00
2022-10-30T10:31:31.861Z,22.10
2022-10-30T10:34:19.932Z,22.10
2022-10-30T10:37:06.261Z,22.10
2022-10-30T10:39:58.074Z,22.10
2022-10-30T10:42:44.841Z,22.10
2022-10-30T10:45:33.353Z,22.10
2022-10-30T10:48:10.042Z,22.10
2022-10-30T10:50:41.838Z,22.10
2022-10-30T10:53:23.986Z,22.10
2022-10-30T10:55:54.155Z,22.10
2022-10-30T10:58:36.360Z,22.10
2022-10-30T11:01:05.958Z,22.20
2022-10-30T11:03:52.811Z,22.20
2022-10-30T11:06:28.376Z,22.20
2022-10-30T11:09:21.512Z,22.30
2022-10-30T11:11:55.742Z,22.30
2022-10-30T11:14:28.819Z,22.30
2022-10-30T11:16:58.415Z,22.30
2022-10-30T11:19:25.364Z,22.30
2022-10-30T11:21:55.058Z,22.30
2022-10-30T11:24:32.904Z,22.30
2022-10-30T11:27:16.407Z,22.40
2022-10-30T11:29:53.203Z,22.40
2022-10-30T11:32:22.584Z,22.30
2022-10-30T11:35:21.349Z,22.30
2022-10-30T11:38:11.077Z,22.30
2022-10-30T11:40:37.725Z,22.30
2022-10-30T11:43:05.390Z,22.30
2022-10-30T11:45:39.207Z,22.30
2022-10-30T11:48:29.769Z,22.40
2022-10-30T11:51:00.225Z,22.40
2022-10-30T11:53:36.377Z,22.40
2022-10-30T11:56:10.775Z,22.40
2022-10-30T11:58:42.457Z,22.50
2022-10-30T12:01:20.440Z,22.50
2022-10-30T12:03:47.057Z,22.50
2022-10-30T12:06:22.453Z,22.50
2022-10-30T12:09:00.660Z,22.50
2022-10-30T12:11:30.641Z,22.50
2022-10-30T12:13:57.972Z,22.50
2022-10-30T12:16:24.962Z,22.50
2022-10-30T12:19:02.465Z,22.50
2022-10-30T12:21:34.974Z,22.50
2022-10-30T12:24:06.787Z,22.60
2022-10-30T12:26:35.822Z,22.60
2022-10-30T12:29:06.884Z,22.60
2022-10-30T12:31:42.648Z,22.60
2022-10-30T12:34:29.017Z,22.60
2022-10-30T12:37:26.767Z,22.60
2022-10-30T12:40:08.757Z,22.60
2022-10-30T12:42:40.045Z,22.60
2022-10-30T12:45:11.889Z,22.60
2022-10-30T12:48:03.490Z,22.70
2022-10-30T12:50:43.703Z,22.70
2022-10-30T12:53:31.769Z,22.70
2022-10-30T12:56:13.195Z,22.70
2022-10-30T12:58:42.714Z,22.70
2022-10-30T13:01:50.449Z,22.70
2022-10-30T13:04:21.214Z,22.80
2022-10-30T13:06:55.375Z,22.80
2022-10-30T13:09:27.581Z,22.80
2022-10-30T13:12:20.909Z,22.80
2022-10-30T13:14:59.097Z,22.80
2022-10-30T13:17:25.644Z,22.80
2022-10-30T13:19:52.150Z,22.80
2022-10-30T13:22:22.069Z,22.80
2022-10-30T13:25:05.013Z,22.80
2022-10-30T13:27:50.440Z,22.80
2022-10-30T13:30:20.270Z,22.80
2022-10-30T13:33:11.492Z,22.80
2022-10-30T13:35:51.164Z,22.80
2022-10-30T13:38:36.877Z,22.80
2022-10-30T13:41:34.344Z,22.80
2022-10-30T13:44:07.481Z,22.80
2022-10-30T13:47:05.407Z,22.80
2022-10-30T13:49:47.621Z,22.80
2022-10-30T13:52:16.866Z,22.80
2022-10-30T13:55:03.502Z,22.80
2022-10-30T13:57:55.513Z,22.80
2022-10-30T14:01:00.288Z,22.80
2022-10-30T14:03:48.428Z,22.80
2022-10-30T14:06:33.396Z,22.80
2022-10-30T14:09:20.933Z,22.90
2022-10-30T14:11:48.271Z,22.90
2022-10-30T14:14:24.721Z,22.90
2022-10-30T14:17:12.168Z,22.90
2022-10-30T14:20:10.427Z,22.80
2022-10-30T14:22:41.762Z,22.90
2022-10-30T14:25:16.263Z,22.90
2022-10-30T14:27:43.863Z,22.90
2022-10-30T14:30:22.264Z,22.80
2022-10-30T14:32:53.663Z,22.80
2022-10-30T14:35:33.711Z,22.80
2022-10-30T14:38:14.803Z,22.80
2022-10-30T14:40:53.405Z,22.80
2022-10-30T14:43:27.423Z,22.80
2022-10-30T14:46:01.998Z,22.80
2022-10-30T14:48:43.425Z,22.80
2022-10-30T14:51:28.783Z,22.80
2022-10-30T14:53:55.545Z,22.80
2022-10-30T14:56:41.040Z,22.80
2022-10-30T14:59:33.227Z,22.80
2022-10-30T15:02:32.756Z,22.80
2022-10-30T15:05:44.995Z,22.80
2022-10-30T15:08:46.385Z,22.80
2022-10-30T15:11:39.050Z,22.70
2022-10-30T15:17:31.672Z,22.70
2022-10-30T15:20:01.501Z,22.70
2022-10-30T15:22:30.583Z,22.70
2022-10-30T15:24:58.790Z,22.70
2022-10-30T15:27:27.030Z,22.70
2022-10-30T15:30:00.980Z,22.70
2022-10-30T15:32:27.824Z,22.70
2022-10-30T15:35:05.540Z,22.70
2022-10-30T15:37:32.746Z,22.70
2022-10-30T15:40:16.849Z,22.70
2022-10-30T15:42:44.308Z,22.70
2022-10-30T15:45:20.207Z,22.70
2022-10-30T15:47:50.343Z,22.60
2022-10-30T15:50:17.438Z,22.60
2022-10-30T15:52:44.176Z,22.60
2022-10-30T15:55:16.804Z,22.60
2022-10-30T15:58:04.634Z,22.60
2022-10-30T16:00:35.548Z,22.60
2022-10-30T16:03:03.654Z,22.60
2022-10-30T16:05:31.146Z,22.50
2022-10-30T16:08:02.575Z,22.60
2022-10-30T16:10:39.843Z,22.50
2022-10-30T16:13:06.599Z,22.50
2022-10-30T16:15:38.300Z,22.50
2022-10-30T16:18:18.606Z,22.60
2022-10-30T16:20:49.711Z,22.50
2022-10-30T16:23:20.213Z,22.50
2022-10-30T16:25:47.768Z,22.50
2022-10-30T16:28:36.111Z,22.50
2022-10-30T16:31:06.603Z,22.50
2022-10-30T16:33:35.391Z,22.40
2022-10-30T16:36:07.035Z,22.40
2022-10-30T16:38:39.728Z,22.40
2022-10-30T16:41:13.759Z,22.30
2022-10-30T16:43:42.054Z,22.30
2022-10-30T16:46:36.083Z,22.20
2022-10-30T16:49:08.750Z,22.10
2022-10-30T16:51:39.311Z,22.00
2022-10-30T16:54:06.402Z,22.00
2022-10-30T16:56:33.520Z,22.00
2022-10-30T16:59:22.651Z,21.90
2022-10-30T17:01:58.785Z,21.90
2022-10-30T17:04:25.880Z,21.90
2022-10-30T17:07:04.940Z,21.80
2022-10-30T17:09:36.452Z,21.70
2022-10-30T17:12:35.395Z,21.70
2022-10-30T17:15:04.391Z,21.60
2022-10-30T17:18:08.981Z,21.60
2022-10-30T17:20:35.696Z,21.60
2022-10-30T17:23:20.341Z,21.60
2022-10-30T17:25:48.746Z,21.50
2022-10-30T17:28:27.917Z,21.50
2022-10-30T17:30:55.401Z,21.50
2022-10-30T17:33:37.749Z,21.50
2022-10-30T17:36:05.772Z,21.40
2022-10-30T17:38:33.060Z,21.50
2022-10-30T17:41:00.514Z,21.50
2022-10-30T17:47:19.734Z,21.60
2022-10-30T17:49:46.979Z,21.60
2022-10-30T17:52:15.524Z,21.60
2022-10-30T17:54:42.869Z,21.60
2022-10-30T17:57:11.605Z,21.60
2022-10-30T17:59:38.466Z,21.60
2022-10-30T18:02:20.138Z,21.60
2022-10-30T18:04:48.092Z,21.60
2022-10-30T18:07:16.433Z,21.60
2022-10-30T18:09:44.237Z,21.50
2022-10-30T18:12:14.490Z,21.40
2022-10-30T18:14:43.087Z,21.40
2022-10-30T18:17:10.938Z,21.40
2022-10-30T18:19:37.710Z,21.40
2022-10-30T18:22:04.448Z,21.40
2022-10-30T18:24:31.154Z,21.40
2022-10-30T18:26:58.607Z,21.30
2022-10-30T18:29:25.312Z,21.30
2022-10-30T18:31:52.113Z,21.20
2022-10-30T18:34:22.485Z,21.00
2022-10-30T18:36:49.263Z,20.90
2022-10-30T18:39:16.159Z,20.90
2022-10-30T18:41:45.467Z,20.90
2022-10-30T18:44:16.473Z,20.80
2022-10-30T18:46:43.509Z,20.80
2022-10-30T18:49:10.210Z,20.70
2022-10-30T18:51:37.188Z,20.70
2022-10-30T18:54:07.907Z,20.60
2022-10-30T18:56:34.561Z,20.60
2022-10-30T18:59:02.522Z,20.70
2022-10-30T19:01:33.206Z,20.80
2022-10-30T19:04:04.547Z,20.90
2022-10-30T19:06:34.344Z,20.90
2022-10-30T19:09:01.359Z,20.90
2022-10-30T19:11:30.887Z,20.70
2022-10-30T19:13:58.246Z,20.70
2022-10-30T19:16:25.413Z,20.80
2022-10-30T19:18:52.991Z,20.80
2022-10-30T19:21:22.411Z,20.80
2022-10-30T19:23:49.468Z,20.80
2022-10-30T19:26:17.534Z,20.70
2022-10-30T19:28:47.313Z,20.70
2022-10-30T19:31:16.381Z,20.60
2022-10-30T19:33:43.123Z,20.50
2022-10-30T19:36:29.406Z,20.50
2022-10-30T19:38:56.747Z,20.30
2022-10-30T19:41:24.754Z,20.30
2022-10-30T19:43:52.327Z,20.30
2022-10-30T19:46:19.133Z,20.20
2022-10-30T19:49:01.115Z,20.20
2022-10-30T19:51:28.763Z,20.20
2022-10-30T19:54:23.434Z,20.20
2022-10-30T19:56:50.143Z,20.00
2022-10-30T19:59:16.809Z,20.00
2022-10-30T20:01:44.605Z,19.90
2022-10-30T20:04:15.623Z,19.90
2022-10-30T20:06:43.202Z,19.80
2022-10-30T20:09:11.749Z,19.80
2022-10-30T20:11:38.490Z,19.70
2022-10-30T20:14:05.241Z,19.70
2022-10-30T20:16:32.842Z,19.60
2022-10-30T20:18:59.450Z,19.70
2022-10-30T20:21:27.642Z,19.90
2022-10-30T20:23:54.295Z,19.90
2022-10-30T20:26:26.614Z,20.00
2022-10-30T20:28:54.297Z,20.00
2022-10-30T20:31:21.763Z,20.10
2022-10-30T20:33:49.046Z,20.00
2022-10-30T20:36:15.750Z,19.80
2022-10-30T20:38:42.623Z,19.80
2022-10-30T20:41:24.597Z,19.70
2022-10-30T20:43:51.993Z,19.80
2022-10-30T20:46:23.895Z,19.80
2022-10-30T20:48:53.580Z,19.80
2022-10-30T20:51:20.371Z,19.80
2022-10-30T20:53:52.243Z,19.70
2022-10-30T20:56:24.101Z,19.80
2022-10-30T20:58:53.411Z,19.80
2022-10-30T21:01:20.143Z,19.60
2022-10-30T21:03:46.948Z,19.60
2022-10-30T21:06:15.504Z,19.80
2022-10-30T21:08:42.166Z,19.90
2022-10-30T21:11:08.939Z,19.70
2022-10-30T21:13:36.415Z,19.60
2022-10-30T21:16:09.498Z,19.50
2022-10-30T21:18:36.405Z,19.40
2022-10-30T21:21:11.484Z,19.30
2022-10-30T21:23:38.214Z,19.30
2022-10-30T21:26:07.207Z,19.30
2022-10-30T21:28:34.169Z,19.30
2022-10-30T21:31:23.764Z,19.30
2022-10-30T21:33:50.576Z,19.20
2022-10-30T21:36:19.853Z,19.20
2022-10-30T21:38:46.748Z,19.40
2022-10-30T21:41:19.354Z,19.50
2022-10-30T21:43:55.073Z,19.50
2022-10-30T21:46:23.822Z,19.40
2022-10-30T21:48:51.131Z,19.30
2022-10-30T21:51:50.543Z,19.30
2022-10-30T21:54:41.828Z,19.10
2022-10-30T21:57:08.516Z,19.10
2022-10-30T22:00:03.432Z,19.10
2022-10-30T22:02:34.153Z,19.10
2022-10-30T22:05:00.825Z,19.10
2022-10-30T22:07:27.498Z,19.00
2022-10-30T22:09:54.232Z,19.00
2022-10-30T22:12:20.827Z,19.00
2022-10-30T22:14:47.530Z,19.00
2022-10-30T22:17:14.258Z,18.80
2022-10-30T22:19:40.921Z,18.90
2022-10-30T22:22:07.655Z,19.00
2022-10-30T22:24:34.298Z,19.00
2022-10-30T22:27:00.997Z,19.10
2022-10-30T22:29:27.925Z,19.10
2022-10-30T22:31:54.591Z,19.20
2022-10-30T22:34:21.236Z,19.10
2022-10-30T22:36:48.202Z,19.20
2022-10-30T22:39:15.085Z,19.20
2022-10-30T22:41:42.522Z,19.30
2022-10-30T22:44:13.452Z,19.20
2022-10-30T22:46:40.706Z,19.20
2022-10-30T22:49:07.926Z,19.20
2022-10-30T22:51:36.664Z,19.20
2022-10-30T22:54:05.886Z,19.10
2022-10-30T22:56:34.647Z,19.10
2022-10-30T22:59:12.814Z,19.10
2022-10-30T23:01:40.897Z,19.20
2022-10-30T23:04:10.146Z,19.10
2022-10-30T23:06:36.709Z,19.00
2022-10-30T23:09:06.691Z,19.00
2022-10-30T23:11:33.342Z,18.90
2022-10-30T23:14:00.022Z,18.90
2022-10-30T23:16:27.105Z,18.80
2022-10-30T23:18:56.140Z,18.80
2022-10-30T23:21:24.581Z,18.70
2022-10-30T23:23:51.611Z,18.80
2022-10-30T23:26:27.591Z,18.80
2022-10-30T23:28:55.610Z,18.80
2022-10-30T23:31:28.339Z,18.90
2022-10-30T23:33:57.986Z,18.90
2022-10-30T23:36:24.812Z,18.90
2022-10-30T23:38:52.968Z,18.80
2022-10-30T23:41:24.186Z,18.80
2022-10-30T23:43:59.241Z,18.80
2022-10-30T23:46:26.628Z,18.70
2022-10-30T23:48:53.287Z,18.70
2022-10-30T23:51:20.709Z,18.60
2022-10-30T23:53:47.660Z,18.40
2022-10-30T23:56:14.573Z,18.40
2022-10-30T23:58:45.145Z,18.60
